CTV402 WIOO-WBGG
Flight info
| Callsign | CTV402 |
|---|---|
| Flight time | 0h 28m |
| Altitude | 18000 |
| Route | PAPSA |
| Aircraft | A320/L-V/N |
Departure
| Time | 2026-04-30 03:30 |
|---|---|
| Airport | Supadio International Airport (WIOO) |
Arrival
| Time | 2026-04-30 03:58 |
|---|---|
| Airport | Kuching International Airport (WBGG) |
| Time | Latitude | Longitude | Altitude | Speed | Heading |
|---|---|---|---|---|---|
| 2026-04-30 02:59 | -0.14708 | 109.40385 | 12 ft | 0 kts | 71° |
| 2026-04-30 03:24 | -0.14712 | 109.40373 | 12 ft | 2 kts | 71° |
| 2026-04-30 03:24 | -0.14716 | 109.40359 | 12 ft | 1 kts | 72° |
| 2026-04-30 03:24 | -0.14714 | 109.40349 | 12 ft | 1 kts | 139° |
| 2026-04-30 03:24 | -0.14708 | 109.40346 | 12 ft | 1 kts | 167° |
| 2026-04-30 03:25 | -0.14704 | 109.40344 | 12 ft | 0 kts | 158° |
| 2026-04-30 03:26 | -0.14709 | 109.40346 | 12 ft | 1 kts | 158° |
| 2026-04-30 03:26 | -0.14727 | 109.40354 | 12 ft | 5 kts | 156° |
| 2026-04-30 03:26 | -0.14785 | 109.40378 | 12 ft | 12 kts | 158° |
| 2026-04-30 03:27 | -0.14852 | 109.40346 | 12 ft | 12 kts | 251° |
| 2026-04-30 03:27 | -0.14918 | 109.40324 | 11 ft | 11 kts | 155° |
| 2026-04-30 03:27 | -0.14991 | 109.40357 | 12 ft | 11 kts | 158° |
| 2026-04-30 03:27 | -0.15072 | 109.40389 | 11 ft | 12 kts | 159° |
| 2026-04-30 03:28 | -0.15169 | 109.40425 | 10 ft | 19 kts | 161° |
| 2026-04-30 03:28 | -0.15339 | 109.40497 | 9 ft | 33 kts | 157° |
| 2026-04-30 03:28 | -0.15582 | 109.40595 | 9 ft | 37 kts | 157° |
| 2026-04-30 03:28 | -0.15809 | 109.40688 | 9 ft | 31 kts | 158° |
| 2026-04-30 03:29 | -0.15950 | 109.40772 | 9 ft | 15 kts | 131° |
| 2026-04-30 03:29 | -0.15992 | 109.40765 | 9 ft | 9 kts | 301° |
| 2026-04-30 03:29 | -0.15947 | 109.40745 | 9 ft | 5 kts | 338° |
| 2026-04-30 03:29 | -0.15769 | 109.40672 | 9 ft | 62 kts | 336° |
| 2026-04-30 03:30 | -0.15163 | 109.40426 | 11 ft | 124 kts | 336° |
| 2026-04-30 03:30 | -0.14191 | 109.40033 | 196 ft | 156 kts | 337° |
| 2026-04-30 03:30 | -0.13238 | 109.39679 | 840 ft | 147 kts | 337° |
| 2026-04-30 03:30 | -0.12248 | 109.39304 | 1341 ft | 155 kts | 350° |
| 2026-04-30 03:31 | -0.11202 | 109.39468 | 1891 ft | 157 kts | 20° |
| 2026-04-30 03:31 | -0.10140 | 109.39873 | 2239 ft | 171 kts | 19° |
| 2026-04-30 03:31 | -0.08990 | 109.40360 | 2581 ft | 188 kts | 30° |
| 2026-04-30 03:31 | -0.07863 | 109.41166 | 2929 ft | 207 kts | 37° |
| 2026-04-30 03:32 | -0.06682 | 109.42103 | 3268 ft | 229 kts | 37° |
| 2026-04-30 03:32 | -0.05382 | 109.43127 | 3715 ft | 246 kts | 37° |
| 2026-04-30 03:32 | -0.03995 | 109.44199 | 4198 ft | 262 kts | 37° |
| 2026-04-30 03:32 | -0.02514 | 109.45328 | 4938 ft | 268 kts | 37° |
| 2026-04-30 03:33 | -0.01042 | 109.46442 | 5751 ft | 271 kts | 37° |
| 2026-04-30 03:33 | 0.00478 | 109.47586 | 6572 ft | 274 kts | 37° |
| 2026-04-30 03:33 | 0.01996 | 109.48726 | 7383 ft | 277 kts | 38° |
| 2026-04-30 03:33 | 0.03548 | 109.49889 | 8191 ft | 280 kts | 38° |
| 2026-04-30 03:34 | 0.05113 | 109.51061 | 8980 ft | 283 kts | 38° |
| 2026-04-30 03:34 | 0.06681 | 109.52234 | 9755 ft | 286 kts | 38° |
| 2026-04-30 03:34 | 0.08287 | 109.53436 | 10445 ft | 292 kts | 38° |
| 2026-04-30 03:34 | 0.09952 | 109.54684 | 10840 ft | 308 kts | 39° |
| 2026-04-30 03:35 | 0.11737 | 109.56014 | 11174 ft | 326 kts | 38° |
| 2026-04-30 03:35 | 0.13605 | 109.57402 | 11475 ft | 344 kts | 38° |
| 2026-04-30 03:35 | 0.15596 | 109.58883 | 11864 ft | 358 kts | 38° |
| 2026-04-30 03:35 | 0.17592 | 109.60367 | 12499 ft | 362 kts | 38° |
| 2026-04-30 03:36 | 0.19623 | 109.61878 | 13181 ft | 364 kts | 39° |
| 2026-04-30 03:36 | 0.21677 | 109.63410 | 13830 ft | 367 kts | 39° |
| 2026-04-30 03:36 | 0.23729 | 109.64942 | 14448 ft | 370 kts | 39° |
| 2026-04-30 03:36 | 0.25788 | 109.66488 | 15034 ft | 373 kts | 39° |
| 2026-04-30 03:37 | 0.27866 | 109.68055 | 15592 ft | 376 kts | 39° |
| 2026-04-30 03:37 | 0.29975 | 109.69642 | 16146 ft | 379 kts | 39° |
| 2026-04-30 03:37 | 0.32111 | 109.71246 | 16678 ft | 383 kts | 39° |
| 2026-04-30 03:37 | 0.34251 | 109.72850 | 17201 ft | 385 kts | 38° |
| 2026-04-30 03:38 | 0.36418 | 109.74473 | 17651 ft | 389 kts | 39° |
| 2026-04-30 03:38 | 0.38596 | 109.76103 | 17862 ft | 390 kts | 39° |
| 2026-04-30 03:38 | 0.40682 | 109.77661 | 17876 ft | 389 kts | 38° |
| 2026-04-30 03:38 | 0.42859 | 109.79288 | 17884 ft | 389 kts | 38° |
| 2026-04-30 03:39 | 0.45003 | 109.80890 | 17887 ft | 389 kts | 39° |
| 2026-04-30 03:39 | 0.47192 | 109.82526 | 17887 ft | 389 kts | 39° |
| 2026-04-30 03:39 | 0.49357 | 109.84145 | 17884 ft | 389 kts | 39° |
| 2026-04-30 03:39 | 0.51513 | 109.85757 | 17883 ft | 389 kts | 39° |
| 2026-04-30 03:40 | 0.53672 | 109.87370 | 17884 ft | 389 kts | 39° |
| 2026-04-30 03:40 | 0.55861 | 109.89008 | 17884 ft | 389 kts | 39° |
| 2026-04-30 03:40 | 0.58025 | 109.90627 | 17883 ft | 389 kts | 39° |
| 2026-04-30 03:40 | 0.60206 | 109.92258 | 17882 ft | 389 kts | 39° |
| 2026-04-30 03:41 | 0.62389 | 109.93890 | 17882 ft | 389 kts | 39° |
| 2026-04-30 03:41 | 0.64551 | 109.95507 | 17882 ft | 389 kts | 39° |
| 2026-04-30 03:41 | 0.66748 | 109.97150 | 17883 ft | 389 kts | 39° |
| 2026-04-30 03:41 | 0.68917 | 109.98771 | 17886 ft | 389 kts | 39° |
| 2026-04-30 03:42 | 0.71083 | 110.00391 | 17890 ft | 389 kts | 39° |
| 2026-04-30 03:42 | 0.73254 | 110.02013 | 17895 ft | 389 kts | 39° |
| 2026-04-30 03:42 | 0.75454 | 110.03658 | 17897 ft | 389 kts | 39° |
| 2026-04-30 03:42 | 0.77624 | 110.05281 | 17898 ft | 389 kts | 39° |
| 2026-04-30 03:43 | 0.79802 | 110.06909 | 17897 ft | 389 kts | 39° |
| 2026-04-30 03:43 | 0.81991 | 110.08546 | 17901 ft | 389 kts | 39° |
| 2026-04-30 03:43 | 0.84141 | 110.10155 | 17903 ft | 389 kts | 39° |
| 2026-04-30 03:43 | 0.86315 | 110.11781 | 17904 ft | 389 kts | 39° |
| 2026-04-30 03:44 | 0.88499 | 110.13415 | 17902 ft | 389 kts | 39° |
| 2026-04-30 03:44 | 0.90663 | 110.15034 | 17899 ft | 389 kts | 39° |
| 2026-04-30 03:44 | 0.92854 | 110.16672 | 17877 ft | 387 kts | 39° |
| 2026-04-30 03:44 | 0.95013 | 110.18286 | 17416 ft | 386 kts | 39° |
| 2026-04-30 03:45 | 0.97163 | 110.19895 | 16508 ft | 393 kts | 38° |
| 2026-04-30 03:45 | 0.99360 | 110.21540 | 15731 ft | 394 kts | 38° |
| 2026-04-30 03:45 | 1.01559 | 110.23184 | 15104 ft | 391 kts | 38° |
| 2026-04-30 03:45 | 1.03728 | 110.24805 | 14500 ft | 388 kts | 39° |
| 2026-04-30 03:46 | 1.05879 | 110.26414 | 13889 ft | 385 kts | 39° |
| 2026-04-30 03:46 | 1.08053 | 110.28040 | 13268 ft | 382 kts | 39° |
| 2026-04-30 03:46 | 1.10160 | 110.29617 | 12674 ft | 379 kts | 38° |
| 2026-04-30 03:46 | 1.12276 | 110.31194 | 12070 ft | 376 kts | 38° |
| 2026-04-30 03:47 | 1.14370 | 110.32752 | 11463 ft | 373 kts | 38° |
| 2026-04-30 03:47 | 1.16454 | 110.34307 | 10846 ft | 371 kts | 38° |
| 2026-04-30 03:47 | 1.18513 | 110.35844 | 10423 ft | 362 kts | 38° |
| 2026-04-30 03:47 | 1.20479 | 110.37313 | 10289 ft | 346 kts | 38° |
| 2026-04-30 03:48 | 1.22362 | 110.38720 | 10169 ft | 331 kts | 38° |
| 2026-04-30 03:48 | 1.24164 | 110.40078 | 10063 ft | 315 kts | 39° |
| 2026-04-30 03:48 | 1.25805 | 110.41480 | 9976 ft | 300 kts | 44° |
| 2026-04-30 03:48 | 1.27248 | 110.42930 | 9776 ft | 291 kts | 47° |
| 2026-04-30 03:49 | 1.28623 | 110.44415 | 9426 ft | 288 kts | 48° |
| 2026-04-30 03:49 | 1.29973 | 110.45887 | 9093 ft | 284 kts | 48° |
| 2026-04-30 03:49 | 1.31311 | 110.47343 | 8772 ft | 281 kts | 48° |
| 2026-04-30 03:49 | 1.32617 | 110.48763 | 8462 ft | 277 kts | 48° |
| 2026-04-30 03:50 | 1.33920 | 110.50178 | 8154 ft | 274 kts | 48° |
| 2026-04-30 03:50 | 1.35209 | 110.51577 | 7847 ft | 271 kts | 48° |
| 2026-04-30 03:50 | 1.36472 | 110.52948 | 7544 ft | 268 kts | 48° |
| 2026-04-30 03:50 | 1.37712 | 110.54295 | 7248 ft | 266 kts | 48° |
| 2026-04-30 03:51 | 1.38974 | 110.55664 | 6952 ft | 263 kts | 47° |
| 2026-04-30 03:51 | 1.40195 | 110.56989 | 6714 ft | 258 kts | 47° |
| 2026-04-30 03:51 | 1.41406 | 110.58304 | 6480 ft | 252 kts | 47° |
| 2026-04-30 03:51 | 1.42622 | 110.59531 | 6208 ft | 249 kts | 37° |
| 2026-04-30 03:52 | 1.44237 | 110.60099 | 5880 ft | 248 kts | 0° |
| 2026-04-30 03:52 | 1.45901 | 110.59712 | 5611 ft | 247 kts | 338° |
| 2026-04-30 03:52 | 1.47457 | 110.59005 | 5367 ft | 243 kts | 337° |
| 2026-04-30 03:52 | 1.48997 | 110.58312 | 5124 ft | 239 kts | 338° |
| 2026-04-30 03:53 | 1.50511 | 110.57668 | 4887 ft | 235 kts | 339° |
| 2026-04-30 03:53 | 1.52004 | 110.57056 | 4667 ft | 231 kts | 340° |
| 2026-04-30 03:53 | 1.53486 | 110.56461 | 4421 ft | 228 kts | 340° |
| 2026-04-30 03:53 | 1.54893 | 110.55732 | 4108 ft | 230 kts | 319° |
| 2026-04-30 03:54 | 1.55823 | 110.54421 | 3790 ft | 232 kts | 288° |
| 2026-04-30 03:54 | 1.55910 | 110.52840 | 3539 ft | 231 kts | 256° |
| 2026-04-30 03:54 | 1.55320 | 110.51357 | 3339 ft | 226 kts | 244° |
| 2026-04-30 03:54 | 1.54639 | 110.49972 | 3126 ft | 221 kts | 245° |
| 2026-04-30 03:55 | 1.54025 | 110.48598 | 3001 ft | 209 kts | 248° |
| 2026-04-30 03:55 | 1.53479 | 110.47256 | 2945 ft | 209 kts | 250° |
| 2026-04-30 03:55 | 1.52940 | 110.45884 | 2435 ft | 216 kts | 249° |
| 2026-04-30 03:55 | 1.52396 | 110.44501 | 2014 ft | 211 kts | 249° |
| 2026-04-30 03:56 | 1.51866 | 110.43168 | 1613 ft | 207 kts | 249° |
| 2026-04-30 03:56 | 1.51346 | 110.41859 | 1141 ft | 195 kts | 248° |
| 2026-04-30 03:56 | 1.50873 | 110.40665 | 809 ft | 176 kts | 248° |
| 2026-04-30 03:56 | 1.50445 | 110.39588 | 609 ft | 157 kts | 249° |
| 2026-04-30 03:57 | 1.50061 | 110.38623 | 420 ft | 147 kts | 248° |
| 2026-04-30 03:57 | 1.49683 | 110.37673 | 216 ft | 147 kts | 248° |
| 2026-04-30 03:57 | 1.49307 | 110.36726 | 73 ft | 146 kts | 248° |
| 2026-04-30 03:57 | 1.48961 | 110.35857 | 49 ft | 111 kts | 248° |
| 2026-04-30 03:58 | 1.48735 | 110.35294 | 75 ft | 62 kts | 249° |
| 2026-04-30 03:58 | 1.48591 | 110.34924 | 81 ft | 53 kts | 248° |
| 2026-04-30 03:58 | 1.48462 | 110.34605 | 86 ft | 40 kts | 248° |
| 2026-04-30 03:58 | 1.48373 | 110.34380 | 90 ft | 30 kts | 249° |
| 2026-04-30 03:59 | 1.48438 | 110.34280 | 88 ft | 16 kts | 341° |
| 2026-04-30 03:59 | 1.48476 | 110.34195 | 88 ft | 16 kts | 251° |
| 2026-04-30 03:59 | 1.48469 | 110.34095 | 88 ft | 15 kts | 319° |
| 2026-04-30 03:59 | 1.48516 | 110.34075 | 87 ft | 15 kts | 339° |
| 2026-04-30 04:00 | 1.48584 | 110.34049 | 87 ft | 2 kts | 339° |
| 2026-04-30 04:00 | 1.48585 | 110.34048 | 87 ft | 0 kts | 339° |